Pagrindinis puslapis
METAR-TAF:

METAR-TAF

Oro uostai :

Eagle, Aliaska, Jungtinės Amerikos Valstijos

platuma: 64-46-35N, ilguma: 141-09-03W, Aukštis: 268 m

Dabartinis oras

Ataskaita buvo paskelbta 7 minutes, ne 21:29 UTC
Ramus vėjas
Temperatūra 11°C
Drėgmė 76%
Slėgis 992 hPa
Matomumas: 16.1 km
Išsisklaidę debesys ne aukštis 2700 ft
Išsisklaidę debesys ne aukštis 4800 ft
Apsiniaukę ne aukštis 6000 ft

METAR: PAEG 212129Z AUTO 00000KT 10SM SCT027 SCT048 OVC060 11/07 A2929 RMK AO2 T01060067 TSNO

Laikas: 13:36 (21:36 UTC)


TAF: trūkstamas

Orai ataskaitas ir orų prognozės (METAR, TAF).

turimą stotys yra geltonos ir raudonos taškus žemėlapyje.

Perkelti pele per norėdami pamatyti stoties vardą.

Tada spustelėkite, norėdami matyti oro stebėjimo ir prognozės.

Norėdami pakeisti žemėlapį: spustelėkite ant žalios mygtukų su juodo kryžiaus žemyn,; žalią mygtuką su brūkšneliu, jei norite nutolinti; arba žalių rodyklių gretimoms žemėlapius.


METAR-TAF: